Terminal Aerodrome Forecast
Issued by NWS

Home | Current Version | Previous Version | Text Only | Print | Product List | Glossary On
Versions: 1 2 3 4 5 6 7 8 9 10 11 12 13 14 15 16 17 18 19 20 21 22 23 24 25 26 27 28 29 30 31 32 33
000
FTUS46 KOTX 231005 AAA
TAFPUW
TAF AMD
KPUW 231005Z 2310/2406 20010KT P6SM -SHRA VCTS SCT060 BKN080CB
      OVC100
     FM231200 07003KT P6SM VCSH SCT050 BKN080
     FM231400 06006KT P6SM SCT080
     FM231900 24012KT P6SM -SHRA VCTS FEW050 SCT080CB BKN100
     FM232200 26016G24KT P6SM -TSRA SCT050 SCT070CB BKN100=

USA.gov is the U.S. government's official web portal to all federal, state and local government web resources and services.